Disclaimer

Please do not use the information listed here in-flight or in-navigation, as they are not provided to us by the airports but are provided by volunteers, so they might be outdated.

Search


Regions


Airport information page

Radio informations:
BELO HORIZONTE A - 127.45 MHz

Airport informations:
Latitude: 19° 54' 33.30" S
Longitude: 043° 59' 26.70" W
Elevation: 3044 feet - 928 meters
Operating hours: From sunrise to sunset (SR-SS)
Operating agency: Civil government, landing fees and diplomatic clearance may be required
Timezone: UTC-3(-2DT)
Fuel: 100/130 octane gasoline, leaded, MIL-L-5572F (GREEN)

Runway information:
09/27 - 3035 x 59 feet< - >925 x 18 meters

Recent METARs:
SBPR 182100Z 06006KT 9999 SCT030 26/18 Q1017

Airport on the map: